sensor_id;sensor_type;location;lat;lon;timestamp;P1;durP1;ratioP1;P2;durP2;ratioP2
7255;SDS011;3669;49.200;9.242;2023-09-07T00:01:00;2.83;;;2.60;;
7255;SDS011;3669;49.200;9.242;2023-09-07T00:03:30;3.20;;;2.90;;
7255;SDS011;3669;49.200;9.242;2023-09-07T00:05:57;2.80;;;2.60;;
7255;SDS011;3669;49.200;9.242;2023-09-07T00:08:24;3.20;;;2.97;;
7255;SDS011;3669;49.200;9.242;2023-09-07T00:10:51;3.30;;;3.00;;
7255;SDS011;3669;49.200;9.242;2023-09-07T00:13:18;2.83;;;2.63;;
7255;SDS011;3669;49.200;9.242;2023-09-07T00:15:45;2.83;;;2.63;;
7255;SDS011;3669;49.200;9.242;2023-09-07T00:18:12;3.13;;;2.88;;
7255;SDS011;3669;49.200;9.242;2023-09-07T00:20:40;2.80;;;2.60;;
7255;SDS011;3669;49.200;9.242;2023-09-07T00:23:07;3.03;;;2.67;;
7255;SDS011;3669;49.200;9.242;2023-09-07T00:25:34;3.30;;;2.80;;
7255;SDS011;3669;49.200;9.242;2023-09-07T00:28:01;3.35;;;3.05;;
7255;SDS011;3669;49.200;9.242;2023-09-07T00:30:28;2.97;;;2.78;;
7255;SDS011;3669;49.200;9.242;2023-09-07T00:32:55;3.05;;;2.85;;
7255;SDS011;3669;49.200;9.242;2023-09-07T00:35:22;3.13;;;2.80;;
7255;SDS011;3669;49.200;9.242;2023-09-07T00:37:50;2.90;;;2.70;;
7255;SDS011;3669;49.200;9.242;2023-09-07T00:40:17;3.08;;;2.78;;
7255;SDS011;3669;49.200;9.242;2023-09-07T00:42:44;3.20;;;2.97;;
7255;SDS011;3669;49.200;9.242;2023-09-07T00:45:11;3.03;;;2.83;;
7255;SDS011;3669;49.200;9.242;2023-09-07T00:47:39;3.10;;;2.72;;
7255;SDS011;3669;49.200;9.242;2023-09-07T00:50:06;3.10;;;2.90;;
7255;SDS011;3669;49.200;9.242;2023-09-07T00:52:34;2.90;;;2.70;;
7255;SDS011;3669;49.200;9.242;2023-09-07T00:55:02;3.00;;;2.70;;
7255;SDS011;3669;49.200;9.242;2023-09-07T00:57:30;3.85;;;3.00;;
7255;SDS011;3669;49.200;9.242;2023-09-07T00:59:57;3.38;;;3.08;;
7255;SDS011;3669;49.200;9.242;2023-09-07T01:02:24;3.20;;;2.90;;
7255;SDS011;3669;49.200;9.242;2023-09-07T01:04:52;3.20;;;2.90;;
7255;SDS011;3669;49.200;9.242;2023-09-07T01:07:23;3.05;;;2.80;;
7255;SDS011;3669;49.200;9.242;2023-09-07T01:09:56;3.67;;;2.92;;
7255;SDS011;3669;49.200;9.242;2023-09-07T01:12:23;3.72;;;2.95;;
7255;SDS011;3669;49.200;9.242;2023-09-07T01:14:51;3.85;;;3.25;;
7255;SDS011;3669;49.200;9.242;2023-09-07T01:17:18;3.25;;;3.00;;
7255;SDS011;3669;49.200;9.242;2023-09-07T01:19:50;3.20;;;2.90;;
7255;SDS011;3669;49.200;9.242;2023-09-07T01:22:19;3.40;;;3.10;;
7255;SDS011;3669;49.200;9.242;2023-09-07T01:24:50;3.40;;;3.10;;
7255;SDS011;3669;49.200;9.242;2023-09-07T01:27:21;3.20;;;2.90;;
7255;SDS011;3669;49.200;9.242;2023-09-07T01:29:48;3.25;;;2.97;;
7255;SDS011;3669;49.200;9.242;2023-09-07T01:32:16;2.83;;;2.63;;
7255;SDS011;3669;49.200;9.242;2023-09-07T01:34:43;4.32;;;4.03;;
7255;SDS011;3669;49.200;9.242;2023-09-07T01:37:10;17.77;;;16.92;;
7255;SDS011;3669;49.200;9.242;2023-09-07T01:39:37;22.48;;;21.30;;
7255;SDS011;3669;49.200;9.242;2023-09-07T01:44:31;33.90;;;32.20;;
7255;SDS011;3669;49.200;9.242;2023-09-07T01:46:59;12.10;;;11.48;;
7255;SDS011;3669;49.200;9.242;2023-09-07T01:49:25;6.97;;;6.60;;
7255;SDS011;3669;49.200;9.242;2023-09-07T01:51:53;3.10;;;2.90;;
7255;SDS011;3669;49.200;9.242;2023-09-07T01:54:21;3.22;;;2.75;;
7255;SDS011;3669;49.200;9.242;2023-09-07T01:56:48;3.13;;;2.92;;
7255;SDS011;3669;49.200;9.242;2023-09-07T01:59:16;3.50;;;3.20;;
7255;SDS011;3669;49.200;9.242;2023-09-07T02:01:43;2.95;;;2.75;;
7255;SDS011;3669;49.200;9.242;2023-09-07T02:04:10;3.28;;;3.00;;
7255;SDS011;3669;49.200;9.242;2023-09-07T02:06:37;3.70;;;3.40;;
7255;SDS011;3669;49.200;9.242;2023-09-07T02:09:05;3.47;;;3.03;;
7255;SDS011;3669;49.200;9.242;2023-09-07T02:11:32;3.03;;;2.75;;
7255;SDS011;3669;49.200;9.242;2023-09-07T02:13:59;3.55;;;2.92;;
7255;SDS011;3669;49.200;9.242;2023-09-07T02:16:26;3.17;;;2.88;;
7255;SDS011;3669;49.200;9.242;2023-09-07T02:19:00;3.22;;;2.92;;
7255;SDS011;3669;49.200;9.242;2023-09-07T02:21:29;3.47;;;3.17;;
7255;SDS011;3669;49.200;9.242;2023-09-07T02:23:56;3.20;;;2.97;;
7255;SDS011;3669;49.200;9.242;2023-09-07T02:26:23;3.38;;;3.15;;
7255;SDS011;3669;49.200;9.242;2023-09-07T02:28:50;3.75;;;3.22;;
7255;SDS011;3669;49.200;9.242;2023-09-07T02:31:17;2.97;;;2.78;;
7255;SDS011;3669;49.200;9.242;2023-09-07T02:33:45;3.38;;;3.17;;
7255;SDS011;3669;49.200;9.242;2023-09-07T02:36:12;3.40;;;3.10;;
7255;SDS011;3669;49.200;9.242;2023-09-07T02:38:40;3.50;;;3.20;;
7255;SDS011;3669;49.200;9.242;2023-09-07T02:41:07;3.20;;;3.00;;
7255;SDS011;3669;49.200;9.242;2023-09-07T02:43:34;3.70;;;3.40;;
7255;SDS011;3669;49.200;9.242;2023-09-07T02:46:01;3.33;;;3.13;;
7255;SDS011;3669;49.200;9.242;2023-09-07T02:48:28;3.45;;;3.15;;
7255;SDS011;3669;49.200;9.242;2023-09-07T02:50:56;3.30;;;3.00;;
7255;SDS011;3669;49.200;9.242;2023-09-07T02:53:24;3.42;;;3.13;;
7255;SDS011;3669;49.200;9.242;2023-09-07T02:55:51;3.35;;;3.05;;
7255;SDS011;3669;49.200;9.242;2023-09-07T02:58:18;3.47;;;3.17;;
7255;SDS011;3669;49.200;9.242;2023-09-07T03:00:45;3.00;;;2.80;;
7255;SDS011;3669;49.200;9.242;2023-09-07T03:03:13;3.47;;;3.17;;
7255;SDS011;3669;49.200;9.242;2023-09-07T03:05:40;9.73;;;9.20;;
7255;SDS011;3669;49.200;9.242;2023-09-07T03:08:07;3.30;;;3.03;;
7255;SDS011;3669;49.200;9.242;2023-09-07T03:10:38;2.92;;;2.72;;
7255;SDS011;3669;49.200;9.242;2023-09-07T03:13:07;3.15;;;2.88;;
7255;SDS011;3669;49.200;9.242;2023-09-07T03:15:34;3.50;;;3.20;;
7255;SDS011;3669;49.200;9.242;2023-09-07T03:18:02;3.35;;;3.10;;
7255;SDS011;3669;49.200;9.242;2023-09-07T03:20:29;3.38;;;3.08;;
7255;SDS011;3669;49.200;9.242;2023-09-07T03:22:56;3.88;;;3.58;;
7255;SDS011;3669;49.200;9.242;2023-09-07T03:25:23;3.15;;;2.95;;
7255;SDS011;3669;49.200;9.242;2023-09-07T03:27:50;3.50;;;3.20;;
7255;SDS011;3669;49.200;9.242;2023-09-07T03:30:17;2.90;;;2.70;;
7255;SDS011;3669;49.200;9.242;2023-09-07T03:32:45;3.28;;;3.00;;
7255;SDS011;3669;49.200;9.242;2023-09-07T03:35:12;3.50;;;3.20;;
7255;SDS011;3669;49.200;9.242;2023-09-07T03:37:39;3.42;;;3.00;;
7255;SDS011;3669;49.200;9.242;2023-09-07T03:40:09;3.30;;;3.10;;
7255;SDS011;3669;49.200;9.242;2023-09-07T03:42:36;3.75;;;3.45;;
7255;SDS011;3669;49.200;9.242;2023-09-07T03:45:03;3.65;;;3.22;;
7255;SDS011;3669;49.200;9.242;2023-09-07T03:47:30;3.47;;;3.17;;
7255;SDS011;3669;49.200;9.242;2023-09-07T03:49:57;3.78;;;3.10;;
7255;SDS011;3669;49.200;9.242;2023-09-07T03:54:32;26.75;;;25.55;;
7255;SDS011;3669;49.200;9.242;2023-09-07T03:56:59;19.60;;;18.58;;
7255;SDS011;3669;49.200;9.242;2023-09-07T03:59:27;10.23;;;9.68;;
7255;SDS011;3669;49.200;9.242;2023-09-07T04:01:54;7.53;;;7.10;;
7255;SDS011;3669;49.200;9.242;2023-09-07T04:04:20;3.60;;;2.97;;
7255;SDS011;3669;49.200;9.242;2023-09-07T04:06:47;3.47;;;3.17;;
7255;SDS011;3669;49.200;9.242;2023-09-07T04:09:17;3.35;;;3.08;;
7255;SDS011;3669;49.200;9.242;2023-09-07T04:11:44;3.85;;;3.40;;
7255;SDS011;3669;49.200;9.242;2023-09-07T04:14:11;3.20;;;2.90;;
7255;SDS011;3669;49.200;9.242;2023-09-07T04:16:38;3.60;;;3.22;;
7255;SDS011;3669;49.200;9.242;2023-09-07T04:19:05;4.15;;;3.38;;
7255;SDS011;3669;49.200;9.242;2023-09-07T04:21:33;3.08;;;2.78;;
7255;SDS011;3669;49.200;9.242;2023-09-07T04:24:01;3.28;;;3.08;;
7255;SDS011;3669;49.200;9.242;2023-09-07T04:26:29;3.97;;;3.58;;
7255;SDS011;3669;49.200;9.242;2023-09-07T04:28:56;3.88;;;3.47;;
7255;SDS011;3669;49.200;9.242;2023-09-07T04:31:23;3.72;;;3.20;;
7255;SDS011;3669;49.200;9.242;2023-09-07T04:33:53;3.58;;;3.17;;
7255;SDS011;3669;49.200;9.242;2023-09-07T04:36:20;3.42;;;3.20;;
7255;SDS011;3669;49.200;9.242;2023-09-07T04:38:48;3.42;;;3.17;;
7255;SDS011;3669;49.200;9.242;2023-09-07T04:41:15;4.03;;;3.65;;
7255;SDS011;3669;49.200;9.242;2023-09-07T04:43:42;3.60;;;3.30;;
7255;SDS011;3669;49.200;9.242;2023-09-07T04:46:10;3.65;;;3.20;;
7255;SDS011;3669;49.200;9.242;2023-09-07T04:48:37;3.58;;;3.28;;
7255;SDS011;3669;49.200;9.242;2023-09-07T04:51:07;3.90;;;3.50;;
7255;SDS011;3669;49.200;9.242;2023-09-07T04:53:35;3.83;;;3.53;;
7255;SDS011;3669;49.200;9.242;2023-09-07T04:56:03;3.95;;;3.63;;
7255;SDS011;3669;49.200;9.242;2023-09-07T04:58:30;6.03;;;5.63;;
7255;SDS011;3669;49.200;9.242;2023-09-07T05:01:04;3.70;;;3.40;;
7255;SDS011;3669;49.200;9.242;2023-09-07T05:03:32;3.63;;;3.33;;
7255;SDS011;3669;49.200;9.242;2023-09-07T05:05:59;3.65;;;3.35;;
7255;SDS011;3669;49.200;9.242;2023-09-07T05:08:27;3.80;;;3.50;;
7255;SDS011;3669;49.200;9.242;2023-09-07T05:10:55;3.90;;;3.60;;
7255;SDS011;3669;49.200;9.242;2023-09-07T05:13:24;3.60;;;3.22;;
7255;SDS011;3669;49.200;9.242;2023-09-07T05:15:51;3.60;;;3.30;;
7255;SDS011;3669;49.200;9.242;2023-09-07T05:18:19;3.72;;;3.40;;
7255;SDS011;3669;49.200;9.242;2023-09-07T05:20:47;3.63;;;3.33;;
7255;SDS011;3669;49.200;9.242;2023-09-07T05:23:18;3.95;;;3.65;;
7255;SDS011;3669;49.200;9.242;2023-09-07T05:25:46;3.50;;;3.20;;
7255;SDS011;3669;49.200;9.242;2023-09-07T05:28:13;4.18;;;3.78;;
7255;SDS011;3669;49.200;9.242;2023-09-07T05:30:41;4.03;;;3.63;;
7255;SDS011;3669;49.200;9.242;2023-09-07T05:33:11;3.67;;;3.38;;
7255;SDS011;3669;49.200;9.242;2023-09-07T05:35:39;4.25;;;3.42;;
7255;SDS011;3669;49.200;9.242;2023-09-07T05:38:08;3.70;;;3.40;;
7255;SDS011;3669;49.200;9.242;2023-09-07T05:40:39;4.30;;;3.90;;
7255;SDS011;3669;49.200;9.242;2023-09-07T05:43:06;4.07;;;3.67;;
7255;SDS011;3669;49.200;9.242;2023-09-07T05:45:42;4.43;;;4.03;;
7255;SDS011;3669;49.200;9.242;2023-09-07T05:48:09;4.53;;;4.13;;
7255;SDS011;3669;49.200;9.242;2023-09-07T05:50:36;4.18;;;3.78;;
7255;SDS011;3669;49.200;9.242;2023-09-07T05:53:04;4.57;;;4.00;;
7255;SDS011;3669;49.200;9.242;2023-09-07T05:55:31;4.15;;;3.80;;
7255;SDS011;3669;49.200;9.242;2023-09-07T05:57:58;4.07;;;3.78;;
7255;SDS011;3669;49.200;9.242;2023-09-07T06:00:26;4.30;;;3.67;;
7255;SDS011;3669;49.200;9.242;2023-09-07T06:02:53;4.13;;;3.72;;
7255;SDS011;3669;49.200;9.242;2023-09-07T06:05:20;4.18;;;3.88;;
7255;SDS011;3669;49.200;9.242;2023-09-07T06:07:47;4.03;;;3.72;;
7255;SDS011;3669;49.200;9.242;2023-09-07T06:10:14;4.28;;;3.90;;
7255;SDS011;3669;49.200;9.242;2023-09-07T06:12:43;3.72;;;3.42;;
7255;SDS011;3669;49.200;9.242;2023-09-07T06:15:10;4.68;;;3.92;;
7255;SDS011;3669;49.200;9.242;2023-09-07T06:17:37;4.40;;;3.63;;
7255;SDS011;3669;49.200;9.242;2023-09-07T06:20:04;4.13;;;3.75;;
7255;SDS011;3669;49.200;9.242;2023-09-07T06:22:31;4.53;;;4.13;;
7255;SDS011;3669;49.200;9.242;2023-09-07T06:24:58;4.20;;;3.80;;
7255;SDS011;3669;49.200;9.242;2023-09-07T06:27:25;4.18;;;3.78;;
7255;SDS011;3669;49.200;9.242;2023-09-07T06:29:52;4.18;;;3.85;;
7255;SDS011;3669;49.200;9.242;2023-09-07T06:32:19;10.57;;;9.73;;
7255;SDS011;3669;49.200;9.242;2023-09-07T06:34:46;19.33;;;18.13;;
7255;SDS011;3669;49.200;9.242;2023-09-07T06:37:13;24.90;;;23.60;;
7255;SDS011;3669;49.200;9.242;2023-09-07T06:39:40;27.23;;;25.75;;
7255;SDS011;3669;49.200;9.242;2023-09-07T06:42:10;20.05;;;18.90;;
7255;SDS011;3669;49.200;9.242;2023-09-07T06:44:37;23.08;;;21.88;;
7255;SDS011;3669;49.200;9.242;2023-09-07T06:47:04;30.83;;;29.38;;
7255;SDS011;3669;49.200;9.242;2023-09-07T06:49:31;13.07;;;12.40;;
7255;SDS011;3669;49.200;9.242;2023-09-07T06:51:57;4.93;;;4.47;;
7255;SDS011;3669;49.200;9.242;2023-09-07T06:54:24;4.40;;;4.00;;
7255;SDS011;3669;49.200;9.242;2023-09-07T06:56:52;4.32;;;4.03;;
7255;SDS011;3669;49.200;9.242;2023-09-07T06:59:19;4.90;;;4.20;;
7255;SDS011;3669;49.200;9.242;2023-09-07T07:01:46;4.35;;;3.75;;
7255;SDS011;3669;49.200;9.242;2023-09-07T07:04:13;4.50;;;4.10;;
7255;SDS011;3669;49.200;9.242;2023-09-07T07:06:40;4.60;;;4.20;;
7255;SDS011;3669;49.200;9.242;2023-09-07T07:09:07;4.18;;;3.78;;
7255;SDS011;3669;49.200;9.242;2023-09-07T07:11:36;4.97;;;4.03;;
7255;SDS011;3669;49.200;9.242;2023-09-07T07:14:05;4.75;;;4.35;;
7255;SDS011;3669;49.200;9.242;2023-09-07T07:16:32;3.95;;;3.63;;
7255;SDS011;3669;49.200;9.242;2023-09-07T07:18:59;4.82;;;4.25;;
7255;SDS011;3669;49.200;9.242;2023-09-07T07:21:26;5.10;;;4.28;;
7255;SDS011;3669;49.200;9.242;2023-09-07T07:23:53;4.45;;;3.88;;
7255;SDS011;3669;49.200;9.242;2023-09-07T07:26:20;4.72;;;4.32;;
7255;SDS011;3669;49.200;9.242;2023-09-07T07:28:47;5.25;;;3.92;;
7255;SDS011;3669;49.200;9.242;2023-09-07T07:31:14;4.30;;;3.90;;
7255;SDS011;3669;49.200;9.242;2023-09-07T07:33:41;3.90;;;3.60;;
7255;SDS011;3669;49.200;9.242;2023-09-07T07:36:08;4.40;;;4.00;;
7255;SDS011;3669;49.200;9.242;2023-09-07T07:38:36;4.97;;;3.90;;
7255;SDS011;3669;49.200;9.242;2023-09-07T07:41:03;6.53;;;4.72;;
7255;SDS011;3669;49.200;9.242;2023-09-07T07:43:32;4.03;;;3.72;;
7255;SDS011;3669;49.200;9.242;2023-09-07T07:45:59;5.25;;;4.35;;
7255;SDS011;3669;49.200;9.242;2023-09-07T07:48:28;4.60;;;4.18;;
7255;SDS011;3669;49.200;9.242;2023-09-07T07:50:55;5.38;;;4.25;;
7255;SDS011;3669;49.200;9.242;2023-09-07T07:53:22;5.45;;;4.00;;
7255;SDS011;3669;49.200;9.242;2023-09-07T07:55:49;3.95;;;3.58;;
7255;SDS011;3669;49.200;9.242;2023-09-07T07:58:17;4.30;;;3.88;;
7255;SDS011;3669;49.200;9.242;2023-09-07T08:00:44;4.15;;;3.78;;
7255;SDS011;3669;49.200;9.242;2023-09-07T08:03:13;4.10;;;3.80;;
7255;SDS011;3669;49.200;9.242;2023-09-07T08:05:40;13.23;;;12.48;;
7255;SDS011;3669;49.200;9.242;2023-09-07T08:08:08;3.85;;;3.38;;
7255;SDS011;3669;49.200;9.242;2023-09-07T08:10:36;4.93;;;4.10;;
7255;SDS011;3669;49.200;9.242;2023-09-07T08:13:03;4.30;;;3.90;;
7255;SDS011;3669;49.200;9.242;2023-09-07T08:15:31;3.95;;;3.65;;
7255;SDS011;3669;49.200;9.242;2023-09-07T08:17:59;3.75;;;3.45;;
7255;SDS011;3669;49.200;9.242;2023-09-07T08:20:26;6.75;;;3.80;;
7255;SDS011;3669;49.200;9.242;2023-09-07T08:22:55;4.65;;;4.25;;
7255;SDS011;3669;49.200;9.242;2023-09-07T08:25:23;4.63;;;3.83;;
7255;SDS011;3669;49.200;9.242;2023-09-07T08:27:51;5.30;;;4.30;;
7255;SDS011;3669;49.200;9.242;2023-09-07T08:30:21;4.32;;;3.92;;
7255;SDS011;3669;49.200;9.242;2023-09-07T08:32:50;4.95;;;3.60;;
7255;SDS011;3669;49.200;9.242;2023-09-07T08:35:17;4.40;;;4.10;;
7255;SDS011;3669;49.200;9.242;2023-09-07T08:37:45;5.05;;;4.30;;
7255;SDS011;3669;49.200;9.242;2023-09-07T08:40:12;4.82;;;4.38;;
7255;SDS011;3669;49.200;9.242;2023-09-07T08:42:39;4.45;;;4.00;;
7255;SDS011;3669;49.200;9.242;2023-09-07T08:45:07;4.45;;;3.78;;
7255;SDS011;3669;49.200;9.242;2023-09-07T08:47:35;8.52;;;8.02;;
7255;SDS011;3669;49.200;9.242;2023-09-07T08:50:02;23.20;;;21.98;;
7255;SDS011;3669;49.200;9.242;2023-09-07T08:52:32;21.38;;;20.40;;
7255;SDS011;3669;49.200;9.242;2023-09-07T08:55:13;4.45;;;4.00;;
7255;SDS011;3669;49.200;9.242;2023-09-07T08:57:40;9.63;;;8.98;;
7255;SDS011;3669;49.200;9.242;2023-09-07T09:00:07;17.52;;;16.58;;
7255;SDS011;3669;49.200;9.242;2023-09-07T09:02:39;13.52;;;12.82;;
7255;SDS011;3669;49.200;9.242;2023-09-07T09:05:08;23.83;;;22.38;;
7255;SDS011;3669;49.200;9.242;2023-09-07T09:07:37;28.92;;;27.30;;
7255;SDS011;3669;49.200;9.242;2023-09-07T09:10:07;18.25;;;17.38;;
7255;SDS011;3669;49.200;9.242;2023-09-07T09:12:35;22.42;;;21.33;;
7255;SDS011;3669;49.200;9.242;2023-09-07T09:15:02;26.50;;;25.15;;
7255;SDS011;3669;49.200;9.242;2023-09-07T09:17:29;22.42;;;21.45;;
7255;SDS011;3669;49.200;9.242;2023-09-07T09:19:56;19.08;;;18.13;;
7255;SDS011;3669;49.200;9.242;2023-09-07T09:22:23;14.23;;;13.38;;
7255;SDS011;3669;49.200;9.242;2023-09-07T09:24:49;5.60;;;5.22;;
7255;SDS011;3669;49.200;9.242;2023-09-07T09:27:16;4.25;;;3.95;;
7255;SDS011;3669;49.200;9.242;2023-09-07T09:29:44;4.30;;;3.90;;
7255;SDS011;3669;49.200;9.242;2023-09-07T09:32:13;4.85;;;4.03;;
7255;SDS011;3669;49.200;9.242;2023-09-07T09:34:42;4.22;;;3.75;;
7255;SDS011;3669;49.200;9.242;2023-09-07T09:37:14;4.55;;;4.15;;
7255;SDS011;3669;49.200;9.242;2023-09-07T09:39:42;4.43;;;3.60;;
7255;SDS011;3669;49.200;9.242;2023-09-07T09:42:10;4.15;;;3.75;;
7255;SDS011;3669;49.200;9.242;2023-09-07T09:44:39;4.50;;;4.13;;
7255;SDS011;3669;49.200;9.242;2023-09-07T09:47:07;4.72;;;4.35;;
7255;SDS011;3669;49.200;9.242;2023-09-07T09:49:34;4.55;;;4.05;;
7255;SDS011;3669;49.200;9.242;2023-09-07T09:52:02;3.97;;;3.60;;
7255;SDS011;3669;49.200;9.242;2023-09-07T09:54:30;4.63;;;4.18;;
7255;SDS011;3669;49.200;9.242;2023-09-07T09:56:59;4.65;;;4.05;;
7255;SDS011;3669;49.200;9.242;2023-09-07T09:59:26;4.72;;;4.22;;
7255;SDS011;3669;49.200;9.242;2023-09-07T10:01:53;5.45;;;4.22;;
7255;SDS011;3669;49.200;9.242;2023-09-07T10:04:21;4.30;;;3.90;;
7255;SDS011;3669;49.200;9.242;2023-09-07T10:06:56;5.13;;;3.97;;
7255;SDS011;3669;49.200;9.242;2023-09-07T10:09:33;4.25;;;3.80;;
7255;SDS011;3669;49.200;9.242;2023-09-07T10:12:02;4.50;;;4.10;;
7255;SDS011;3669;49.200;9.242;2023-09-07T10:14:40;4.72;;;3.67;;
7255;SDS011;3669;49.200;9.242;2023-09-07T10:17:08;4.10;;;3.80;;
7255;SDS011;3669;49.200;9.242;2023-09-07T10:19:35;4.20;;;3.90;;
7255;SDS011;3669;49.200;9.242;2023-09-07T10:22:04;4.20;;;3.80;;
7255;SDS011;3669;49.200;9.242;2023-09-07T10:24:31;5.03;;;4.00;;
7255;SDS011;3669;49.200;9.242;2023-09-07T10:27:05;5.88;;;4.50;;
7255;SDS011;3669;49.200;9.242;2023-09-07T10:29:46;4.07;;;3.78;;
7255;SDS011;3669;49.200;9.242;2023-09-07T10:32:13;3.95;;;3.58;;
7255;SDS011;3669;49.200;9.242;2023-09-07T10:36:22;21.08;;;19.92;;
7255;SDS011;3669;49.200;9.242;2023-09-07T10:38:50;21.95;;;20.85;;
7255;SDS011;3669;49.200;9.242;2023-09-07T10:41:20;24.55;;;23.25;;
7255;SDS011;3669;49.200;9.242;2023-09-07T10:43:51;15.90;;;14.98;;
7255;SDS011;3669;49.200;9.242;2023-09-07T10:46:19;5.68;;;5.22;;
7255;SDS011;3669;49.200;9.242;2023-09-07T10:48:49;4.43;;;4.03;;
7255;SDS011;3669;49.200;9.242;2023-09-07T10:51:30;20.55;;;19.48;;
7255;SDS011;3669;49.200;9.242;2023-09-07T10:53:57;15.88;;;15.02;;
7255;SDS011;3669;49.200;9.242;2023-09-07T10:56:24;5.28;;;4.50;;
7255;SDS011;3669;49.200;9.242;2023-09-07T10:58:53;4.75;;;3.67;;
7255;SDS011;3669;49.200;9.242;2023-09-07T11:01:20;4.03;;;3.72;;
7255;SDS011;3669;49.200;9.242;2023-09-07T11:03:47;4.03;;;3.40;;
7255;SDS011;3669;49.200;9.242;2023-09-07T11:06:18;4.22;;;3.85;;
7255;SDS011;3669;49.200;9.242;2023-09-07T11:08:47;4.75;;;4.00;;
7255;SDS011;3669;49.200;9.242;2023-09-07T11:11:14;5.53;;;3.90;;
7255;SDS011;3669;49.200;9.242;2023-09-07T11:13:42;4.10;;;3.80;;
7255;SDS011;3669;49.200;9.242;2023-09-07T11:16:09;4.63;;;4.22;;
7255;SDS011;3669;49.200;9.242;2023-09-07T11:18:36;4.10;;;3.63;;
7255;SDS011;3669;49.200;9.242;2023-09-07T11:21:03;4.45;;;3.83;;
7255;SDS011;3669;49.200;9.242;2023-09-07T11:23:33;5.90;;;3.60;;
7255;SDS011;3669;49.200;9.242;2023-09-07T11:26:04;4.20;;;3.83;;
7255;SDS011;3669;49.200;9.242;2023-09-07T11:28:32;4.68;;;4.28;;
7255;SDS011;3669;49.200;9.242;2023-09-07T11:30:59;4.43;;;4.03;;
7255;SDS011;3669;49.200;9.242;2023-09-07T11:33:26;4.10;;;3.78;;
7255;SDS011;3669;49.200;9.242;2023-09-07T11:35:53;3.97;;;3.67;;
7255;SDS011;3669;49.200;9.242;2023-09-07T11:38:21;4.28;;;3.97;;
7255;SDS011;3669;49.200;9.242;2023-09-07T11:40:48;4.60;;;4.20;;
7255;SDS011;3669;49.200;9.242;2023-09-07T11:43:15;4.32;;;4.00;;
7255;SDS011;3669;49.200;9.242;2023-09-07T11:45:45;4.30;;;3.70;;
7255;SDS011;3669;49.200;9.242;2023-09-07T11:48:12;4.53;;;3.80;;
7255;SDS011;3669;49.200;9.242;2023-09-07T11:50:40;3.83;;;3.50;;
7255;SDS011;3669;49.200;9.242;2023-09-07T11:53:07;3.97;;;3.67;;
7255;SDS011;3669;49.200;9.242;2023-09-07T11:55:34;5.72;;;4.07;;
7255;SDS011;3669;49.200;9.242;2023-09-07T11:58:02;4.82;;;3.90;;
7255;SDS011;3669;49.200;9.242;2023-09-07T12:00:29;3.78;;;3.47;;
7255;SDS011;3669;49.200;9.242;2023-09-07T12:02:57;4.40;;;3.70;;
7255;SDS011;3669;49.200;9.242;2023-09-07T12:05:25;5.05;;;4.65;;
7255;SDS011;3669;49.200;9.242;2023-09-07T12:07:52;4.03;;;3.63;;
7255;SDS011;3669;49.200;9.242;2023-09-07T12:10:19;4.85;;;3.90;;
7255;SDS011;3669;49.200;9.242;2023-09-07T12:12:47;4.70;;;3.85;;
7255;SDS011;3669;49.200;9.242;2023-09-07T12:15:14;4.07;;;3.67;;
7255;SDS011;3669;49.200;9.242;2023-09-07T12:17:41;4.30;;;4.00;;
7255;SDS011;3669;49.200;9.242;2023-09-07T12:20:08;4.25;;;3.95;;
7255;SDS011;3669;49.200;9.242;2023-09-07T12:22:36;3.95;;;3.45;;
7255;SDS011;3669;49.200;9.242;2023-09-07T12:25:04;5.10;;;4.40;;
7255;SDS011;3669;49.200;9.242;2023-09-07T12:27:36;4.25;;;3.90;;
7255;SDS011;3669;49.200;9.242;2023-09-07T12:30:03;4.10;;;3.80;;
7255;SDS011;3669;49.200;9.242;2023-09-07T12:32:35;4.53;;;3.90;;
7255;SDS011;3669;49.200;9.242;2023-09-07T12:35:02;4.70;;;3.75;;
7255;SDS011;3669;49.200;9.242;2023-09-07T12:37:34;5.68;;;4.25;;
7255;SDS011;3669;49.200;9.242;2023-09-07T12:40:04;4.47;;;4.07;;
7255;SDS011;3669;49.200;9.242;2023-09-07T12:42:38;4.45;;;3.72;;
7255;SDS011;3669;49.200;9.242;2023-09-07T12:45:06;4.10;;;3.70;;
7255;SDS011;3669;49.200;9.242;2023-09-07T12:47:34;3.90;;;3.58;;
7255;SDS011;3669;49.200;9.242;2023-09-07T12:50:01;4.10;;;3.70;;
7255;SDS011;3669;49.200;9.242;2023-09-07T12:52:28;4.35;;;3.95;;
7255;SDS011;3669;49.200;9.242;2023-09-07T12:54:55;4.15;;;3.78;;
7255;SDS011;3669;49.200;9.242;2023-09-07T12:57:22;3.60;;;3.30;;
7255;SDS011;3669;49.200;9.242;2023-09-07T12:59:49;8.02;;;7.50;;
7255;SDS011;3669;49.200;9.242;2023-09-07T13:02:16;15.52;;;14.68;;
7255;SDS011;3669;49.200;9.242;2023-09-07T13:04:43;20.88;;;19.95;;
7255;SDS011;3669;49.200;9.242;2023-09-07T13:07:10;28.25;;;26.80;;
7255;SDS011;3669;49.200;9.242;2023-09-07T13:09:37;20.23;;;19.23;;
7255;SDS011;3669;49.200;9.242;2023-09-07T13:12:04;12.52;;;11.77;;
7255;SDS011;3669;49.200;9.242;2023-09-07T13:14:31;8.82;;;8.27;;
7255;SDS011;3669;49.200;9.242;2023-09-07T13:16:58;4.50;;;4.18;;
7255;SDS011;3669;49.200;9.242;2023-09-07T13:19:25;4.53;;;4.13;;
7255;SDS011;3669;49.200;9.242;2023-09-07T13:21:52;6.30;;;4.03;;
7255;SDS011;3669;49.200;9.242;2023-09-07T13:24:19;4.40;;;4.00;;
7255;SDS011;3669;49.200;9.242;2023-09-07T13:26:50;4.25;;;3.95;;
7255;SDS011;3669;49.200;9.242;2023-09-07T13:29:17;3.92;;;3.63;;
7255;SDS011;3669;49.200;9.242;2023-09-07T13:31:44;4.47;;;4.07;;
7255;SDS011;3669;49.200;9.242;2023-09-07T13:34:11;4.30;;;3.72;;
7255;SDS011;3669;49.200;9.242;2023-09-07T13:36:38;4.20;;;3.80;;
7255;SDS011;3669;49.200;9.242;2023-09-07T13:39:05;4.25;;;3.85;;
7255;SDS011;3669;49.200;9.242;2023-09-07T13:41:33;5.10;;;4.32;;
7255;SDS011;3669;49.200;9.242;2023-09-07T13:44:00;4.38;;;3.97;;
7255;SDS011;3669;49.200;9.242;2023-09-07T13:46:27;4.43;;;4.03;;
7255;SDS011;3669;49.200;9.242;2023-09-07T13:48:55;4.50;;;3.88;;
7255;SDS011;3669;49.200;9.242;2023-09-07T13:51:22;3.63;;;3.33;;
7255;SDS011;3669;49.200;9.242;2023-09-07T13:53:50;4.30;;;3.90;;
7255;SDS011;3669;49.200;9.242;2023-09-07T13:56:21;4.60;;;3.70;;
7255;SDS011;3669;49.200;9.242;2023-09-07T13:58:48;4.43;;;4.03;;
7255;SDS011;3669;49.200;9.242;2023-09-07T14:01:15;4.00;;;3.70;;
7255;SDS011;3669;49.200;9.242;2023-09-07T14:03:42;4.15;;;3.85;;
7255;SDS011;3669;49.200;9.242;2023-09-07T14:06:09;3.85;;;3.55;;
7255;SDS011;3669;49.200;9.242;2023-09-07T14:08:36;4.47;;;3.90;;
7255;SDS011;3669;49.200;9.242;2023-09-07T14:11:03;4.50;;;3.88;;
7255;SDS011;3669;49.200;9.242;2023-09-07T14:13:31;4.53;;;3.78;;
7255;SDS011;3669;49.200;9.242;2023-09-07T14:16:02;4.35;;;3.72;;
7255;SDS011;3669;49.200;9.242;2023-09-07T14:18:29;5.95;;;4.05;;
7255;SDS011;3669;49.200;9.242;2023-09-07T14:20:56;4.25;;;3.85;;
7255;SDS011;3669;49.200;9.242;2023-09-07T14:23:24;4.22;;;3.80;;
7255;SDS011;3669;49.200;9.242;2023-09-07T14:25:51;5.57;;;4.20;;
7255;SDS011;3669;49.200;9.242;2023-09-07T14:28:19;4.30;;;3.85;;
7255;SDS011;3669;49.200;9.242;2023-09-07T14:30:46;4.22;;;3.85;;
7255;SDS011;3669;49.200;9.242;2023-09-07T14:33:13;4.38;;;3.70;;
7255;SDS011;3669;49.200;9.242;2023-09-07T14:35:41;4.00;;;3.63;;
7255;SDS011;3669;49.200;9.242;2023-09-07T14:38:08;5.07;;;3.95;;
7255;SDS011;3669;49.200;9.242;2023-09-07T14:40:35;5.13;;;3.92;;
7255;SDS011;3669;49.200;9.242;2023-09-07T14:43:03;4.20;;;3.90;;
7255;SDS011;3669;49.200;9.242;2023-09-07T14:45:31;3.92;;;3.63;;
7255;SDS011;3669;49.200;9.242;2023-09-07T14:47:58;4.38;;;3.97;;
7255;SDS011;3669;49.200;9.242;2023-09-07T14:50:25;4.40;;;4.00;;
7255;SDS011;3669;49.200;9.242;2023-09-07T14:52:53;4.18;;;3.78;;
7255;SDS011;3669;49.200;9.242;2023-09-07T14:55:21;4.28;;;3.88;;
7255;SDS011;3669;49.200;9.242;2023-09-07T14:57:48;4.15;;;3.75;;
7255;SDS011;3669;49.200;9.242;2023-09-07T15:00:15;4.50;;;4.10;;
7255;SDS011;3669;49.200;9.242;2023-09-07T15:02:42;4.10;;;3.80;;
7255;SDS011;3669;49.200;9.242;2023-09-07T15:05:09;4.38;;;3.92;;
7255;SDS011;3669;49.200;9.242;2023-09-07T15:07:37;4.40;;;3.80;;
7255;SDS011;3669;49.200;9.242;2023-09-07T15:10:04;5.75;;;3.92;;
7255;SDS011;3669;49.200;9.242;2023-09-07T15:12:31;4.15;;;3.80;;
7255;SDS011;3669;49.200;9.242;2023-09-07T15:14:58;6.65;;;3.85;;
7255;SDS011;3669;49.200;9.242;2023-09-07T15:17:26;4.00;;;3.60;;
7255;SDS011;3669;49.200;9.242;2023-09-07T15:19:53;4.00;;;3.60;;
7255;SDS011;3669;49.200;9.242;2023-09-07T15:22:20;4.22;;;3.80;;